SVA101X OMDB-OERK
Flight info
| Callsign | SVA101X |
|---|---|
| Flight time | N/A |
| Altitude | 40000 |
| Route | SENPA N571 ALPOB L768 ULADA T136 OTISU N112 GETOT Q212 MEMGO |
| Aircraft | A339/H-SADE1E2E3GHIJ3J5M1P2RWXY/LB2D1 |
Departure
| Time | 2026-04-24 16:19 |
|---|---|
| Airport | Dubai International Airport (OMDB) |
Arrival
| Time | N/A |
|---|---|
| Airport | King Khalid International Airport (OERK) |
| Time | Latitude | Longitude | Altitude | Speed | Heading |
|---|---|---|---|---|---|
| 2026-04-24 15:54 | 25.25728 | 55.34749 | 28 ft | 0 kts | 213° |
| 2026-04-24 16:06 | 25.25735 | 55.34754 | 27 ft | 3 kts | 212° |
| 2026-04-24 16:06 | 25.25770 | 55.34778 | 27 ft | 3 kts | 211° |
| 2026-04-24 16:07 | 25.25783 | 55.34787 | 26 ft | 3 kts | 205° |
| 2026-04-24 16:07 | 25.25798 | 55.34796 | 26 ft | 3 kts | 175° |
| 2026-04-24 16:07 | 25.25826 | 55.34782 | 26 ft | 3 kts | 122° |
| 2026-04-24 16:08 | 25.25834 | 55.34767 | 27 ft | 1 kts | 121° |
| 2026-04-24 16:08 | 25.25835 | 55.34766 | 27 ft | 0 kts | 121° |
| 2026-04-24 16:11 | 25.25825 | 55.34784 | 28 ft | 5 kts | 121° |
| 2026-04-24 16:12 | 25.25762 | 55.34903 | 28 ft | 12 kts | 123° |
| 2026-04-24 16:12 | 25.25742 | 55.34981 | 28 ft | 11 kts | 71° |
| 2026-04-24 16:12 | 25.25878 | 55.35083 | 28 ft | 14 kts | 30° |
| 2026-04-24 16:13 | 25.25966 | 55.35139 | 28 ft | 14 kts | 30° |
| 2026-04-24 16:13 | 25.26118 | 55.35278 | 28 ft | 12 kts | 85° |
| 2026-04-24 16:14 | 25.26015 | 55.35493 | 28 ft | 21 kts | 123° |
| 2026-04-24 16:14 | 25.25932 | 55.35645 | 28 ft | 26 kts | 120° |
| 2026-04-24 16:14 | 25.25727 | 55.36006 | 28 ft | 32 kts | 119° |
| 2026-04-24 16:15 | 25.25651 | 55.36150 | 28 ft | 34 kts | 122° |
| 2026-04-24 16:15 | 25.25335 | 55.36717 | 28 ft | 40 kts | 120° |
| 2026-04-24 16:16 | 25.25060 | 55.37219 | 28 ft | 37 kts | 123° |
| 2026-04-24 16:16 | 25.24951 | 55.37414 | 28 ft | 16 kts | 122° |
| 2026-04-24 16:17 | 25.24727 | 55.37824 | 28 ft | 0 kts | 120° |
| 2026-04-24 16:17 | 25.24683 | 55.37906 | 28 ft | 10 kts | 120° |
| 2026-04-24 16:18 | 25.24732 | 55.37997 | 28 ft | 12 kts | 32° |
| 2026-04-24 16:18 | 25.24811 | 55.38003 | 28 ft | 0 kts | 331° |
| 2026-04-24 16:18 | 25.24886 | 55.37891 | 28 ft | 54 kts | 299° |
| 2026-04-24 16:19 | 25.25878 | 55.36110 | 481 ft | 174 kts | 302° |
| 2026-04-24 16:19 | 25.26555 | 55.34950 | 1359 ft | 187 kts | 306° |
| 2026-04-24 16:20 | 25.27959 | 55.32471 | 3241 ft | 195 kts | 301° |
| 2026-04-24 16:20 | 25.29174 | 55.29602 | 3904 ft | 199 kts | 289° |
| 2026-04-24 16:20 | 25.29542 | 55.28179 | 3992 ft | 189 kts | 283° |
| 2026-04-24 16:21 | 25.29901 | 55.25056 | 3393 ft | 241 kts | 275° |
| 2026-04-24 16:21 | 25.30041 | 55.23054 | 3548 ft | 276 kts | 275° |
| 2026-04-24 16:21 | 25.30165 | 55.20902 | 4056 ft | 282 kts | 273° |
| 2026-04-24 16:22 | 25.30258 | 55.18802 | 5093 ft | 268 kts | 272° |
| 2026-04-24 16:22 | 25.30441 | 55.14678 | 6492 ft | 270 kts | 272° |
| 2026-04-24 16:22 | 25.30541 | 55.12594 | 7116 ft | 273 kts | 272° |
| 2026-04-24 16:23 | 25.30645 | 55.10486 | 7770 ft | 276 kts | 272° |
| 2026-04-24 16:23 | 25.30750 | 55.08367 | 8429 ft | 278 kts | 272° |
| 2026-04-24 16:23 | 25.30855 | 55.06242 | 9107 ft | 280 kts | 272° |
| 2026-04-24 16:24 | 25.31067 | 55.01893 | 10331 ft | 291 kts | 272° |
| 2026-04-24 16:24 | 25.31178 | 54.99578 | 10515 ft | 311 kts | 272° |
| 2026-04-24 16:24 | 25.31296 | 54.97116 | 10692 ft | 330 kts | 272° |
| 2026-04-24 16:24 | 25.31419 | 54.94560 | 11158 ft | 336 kts | 272° |
| 2026-04-24 16:25 | 25.31544 | 54.91968 | 11764 ft | 339 kts | 272° |
| 2026-04-24 16:25 | 25.31628 | 54.90207 | 12162 ft | 341 kts | 272° |
| 2026-04-24 16:25 | 25.31752 | 54.87620 | 12764 ft | 343 kts | 272° |
| 2026-04-24 16:26 | 25.32004 | 54.82299 | 13956 ft | 349 kts | 272° |
| 2026-04-24 16:26 | 25.32130 | 54.79615 | 14550 ft | 350 kts | 272° |
| 2026-04-24 16:26 | 25.32382 | 54.74203 | 15697 ft | 354 kts | 272° |
| 2026-04-24 16:27 | 25.32508 | 54.71481 | 16275 ft | 356 kts | 272° |
| 2026-04-24 16:27 | 25.32635 | 54.68745 | 16844 ft | 357 kts | 272° |
| 2026-04-24 16:27 | 25.32762 | 54.65998 | 17419 ft | 359 kts | 272° |
| 2026-04-24 16:27 | 25.32889 | 54.63238 | 17993 ft | 361 kts | 272° |
| 2026-04-24 16:28 | 25.33016 | 54.60460 | 18516 ft | 362 kts | 272° |
| 2026-04-24 16:28 | 25.33143 | 54.57675 | 18994 ft | 365 kts | 272° |
| 2026-04-24 16:28 | 25.33744 | 54.52069 | 19945 ft | 371 kts | 282° |
| 2026-04-24 16:29 | 25.34473 | 54.49324 | 20438 ft | 374 kts | 285° |
| 2026-04-24 16:29 | 25.35238 | 54.46567 | 20933 ft | 376 kts | 285° |
| 2026-04-24 16:29 | 25.36750 | 54.40990 | 21922 ft | 382 kts | 285° |
| 2026-04-24 16:30 | 25.38276 | 54.35324 | 22949 ft | 387 kts | 285° |
| 2026-04-24 16:30 | 25.39037 | 54.32496 | 23434 ft | 390 kts | 284° |
| 2026-04-24 16:30 | 25.39813 | 54.29607 | 23891 ft | 392 kts | 285° |
| 2026-04-24 16:31 | 25.40592 | 54.26702 | 24342 ft | 394 kts | 284° |
| 2026-04-24 16:31 | 25.41335 | 54.23769 | 24786 ft | 397 kts | 283° |
| 2026-04-24 16:31 | 25.42058 | 54.20820 | 25222 ft | 399 kts | 283° |
| 2026-04-24 16:31 | 25.42786 | 54.17847 | 25657 ft | 401 kts | 283° |
| 2026-04-24 16:32 | 25.43521 | 54.14859 | 26092 ft | 404 kts | 283° |
| 2026-04-24 16:32 | 25.44266 | 54.11848 | 26513 ft | 406 kts | 284° |
| 2026-04-24 16:32 | 25.45015 | 54.08825 | 26923 ft | 409 kts | 283° |
| 2026-04-24 16:32 | 25.45756 | 54.05774 | 27339 ft | 412 kts | 283° |
| 2026-04-24 16:33 | 25.46493 | 54.02701 | 27756 ft | 414 kts | 283° |
| 2026-04-24 16:33 | 25.48729 | 53.93355 | 28953 ft | 423 kts | 283° |
| 2026-04-24 16:33 | 25.51790 | 53.80566 | 30421 ft | 434 kts | 283° |
| 2026-04-24 16:33 | 25.54895 | 53.67584 | 31938 ft | 441 kts | 283° |
| 2026-04-24 16:34 | 25.58060 | 53.54338 | 33173 ft | 446 kts | 283° |
| 2026-04-24 16:34 | 25.61214 | 53.41058 | 34149 ft | 444 kts | 283° |
| 2026-04-24 16:34 | 25.64271 | 53.28107 | 35258 ft | 435 kts | 283° |
| 2026-04-24 16:34 | 25.67337 | 53.15071 | 36410 ft | 426 kts | 283° |
| 2026-04-24 16:35 | 25.70364 | 53.02710 | 37525 ft | 417 kts | 287° |
| 2026-04-24 16:35 | 25.75434 | 52.91194 | 38617 ft | 412 kts | 294° |
| 2026-04-24 16:35 | 25.79065 | 52.83452 | 39051 ft | 411 kts | 294° |
| 2026-04-24 16:35 | 25.82748 | 52.75621 | 39462 ft | 410 kts | 294° |
| 2026-04-24 16:36 | 25.88013 | 52.64403 | 39939 ft | 411 kts | 294° |
| 2026-04-24 16:36 | 25.93202 | 52.52992 | 39975 ft | 416 kts | 292° |
| 2026-04-24 16:36 | 25.99306 | 52.39056 | 39948 ft | 420 kts | 292° |
| 2026-04-24 16:37 | 26.04520 | 52.27390 | 39950 ft | 421 kts | 292° |
| 2026-04-24 16:37 | 26.13562 | 52.07066 | 39912 ft | 422 kts | 292° |
| 2026-04-24 16:38 | 26.18772 | 51.95363 | 39953 ft | 422 kts | 292° |
| 2026-04-24 16:38 | 26.23977 | 51.83647 | 39956 ft | 422 kts | 292° |
| 2026-04-24 16:39 | 26.29173 | 51.71937 | 39966 ft | 422 kts | 292° |
| 2026-04-24 16:39 | 26.34407 | 51.60200 | 39944 ft | 422 kts | 292° |
| 2026-04-24 16:40 | 26.39179 | 51.48299 | 39951 ft | 418 kts | 285° |
| 2026-04-24 16:40 | 26.43081 | 51.36063 | 39953 ft | 419 kts | 286° |
| 2026-04-24 16:41 | 26.46997 | 51.23816 | 39956 ft | 418 kts | 286° |
| 2026-04-24 16:41 | 26.50885 | 51.11614 | 39949 ft | 417 kts | 286° |
| 2026-04-24 16:42 | 26.54764 | 50.99398 | 39951 ft | 416 kts | 285° |
| 2026-04-24 16:42 | 26.58602 | 50.87230 | 39953 ft | 415 kts | 285° |
| 2026-04-24 16:43 | 26.62362 | 50.75063 | 39953 ft | 414 kts | 285° |
| 2026-04-24 16:43 | 26.66070 | 50.62885 | 39954 ft | 414 kts | 284° |
| 2026-04-24 16:44 | 26.69673 | 50.50662 | 39957 ft | 414 kts | 284° |
| 2026-04-24 16:44 | 26.72933 | 50.38432 | 39960 ft | 412 kts | 282° |
| 2026-04-24 16:45 | 26.74024 | 50.32173 | 39960 ft | 408 kts | 271° |
| 2026-04-24 16:45 | 26.73631 | 50.25876 | 39961 ft | 407 kts | 259° |
| 2026-04-24 16:45 | 26.71798 | 50.19879 | 39960 ft | 411 kts | 246° |
| 2026-04-24 16:45 | 26.68919 | 50.14348 | 39955 ft | 413 kts | 243° |
| 2026-04-24 16:46 | 26.63112 | 50.03247 | 39941 ft | 413 kts | 243° |
| 2026-04-24 16:46 | 26.57279 | 49.92158 | 39928 ft | 414 kts | 243° |
| 2026-04-24 16:47 | 26.51450 | 49.81076 | 39921 ft | 413 kts | 244° |
| 2026-04-24 16:47 | 26.47230 | 49.69263 | 39923 ft | 409 kts | 254° |
| 2026-04-24 16:48 | 26.43706 | 49.57243 | 39931 ft | 410 kts | 253° |
| 2026-04-24 16:48 | 26.40148 | 49.45172 | 39942 ft | 409 kts | 253° |
| 2026-04-24 16:49 | 26.36589 | 49.33123 | 39951 ft | 409 kts | 253° |
| 2026-04-24 16:49 | 26.32985 | 49.21098 | 39944 ft | 409 kts | 249° |
| 2026-04-24 16:50 | 26.31021 | 49.17481 | 39955 ft | 416 kts | 234° |
| 2026-04-24 16:50 | 26.24975 | 49.11874 | 39958 ft | 426 kts | 223° |
| 2026-04-24 16:50 | 26.15644 | 49.03795 | 39946 ft | 424 kts | 225° |
| 2026-04-24 16:51 | 26.06408 | 48.95613 | 39948 ft | 425 kts | 225° |
| 2026-04-24 16:51 | 25.97140 | 48.87426 | 39943 ft | 425 kts | 225° |
| 2026-04-24 16:52 | 25.87927 | 48.79304 | 39950 ft | 426 kts | 225° |
| 2026-04-24 16:52 | 25.78640 | 48.71134 | 39953 ft | 426 kts | 225° |
| 2026-04-24 16:53 | 25.69267 | 48.62904 | 39953 ft | 427 kts | 225° |
| 2026-04-24 16:53 | 25.62490 | 48.56966 | 39955 ft | 428 kts | 224° |
| 2026-04-24 16:54 | 25.57791 | 48.52849 | 39639 ft | 434 kts | 224° |
| 2026-04-24 16:54 | 25.55427 | 48.50781 | 39413 ft | 434 kts | 224° |
| 2026-04-24 16:54 | 25.53048 | 48.48702 | 39182 ft | 435 kts | 224° |
| 2026-04-24 16:55 | 25.50670 | 48.46624 | 38958 ft | 435 kts | 224° |
| 2026-04-24 16:55 | 25.48287 | 48.44543 | 38728 ft | 436 kts | 224° |
| 2026-04-24 16:55 | 25.45901 | 48.42459 | 38250 ft | 439 kts | 224° |
| 2026-04-24 16:55 | 25.43497 | 48.40360 | 37708 ft | 441 kts | 224° |
| 2026-04-24 16:56 | 25.41082 | 48.38254 | 37196 ft | 443 kts | 224° |
| 2026-04-24 16:56 | 25.38682 | 48.36162 | 36708 ft | 446 kts | 223° |
| 2026-04-24 16:56 | 25.36207 | 48.34006 | 36175 ft | 449 kts | 223° |
| 2026-04-24 16:56 | 25.33752 | 48.31869 | 35673 ft | 451 kts | 223° |
| 2026-04-24 16:57 | 25.31279 | 48.29717 | 35158 ft | 454 kts | 223° |
| 2026-04-24 16:57 | 25.28819 | 48.27578 | 34660 ft | 457 kts | 223° |
| 2026-04-24 16:57 | 25.26316 | 48.25401 | 34128 ft | 459 kts | 223° |
| 2026-04-24 16:57 | 25.23796 | 48.23212 | 33578 ft | 462 kts | 223° |
| 2026-04-24 16:58 | 25.21259 | 48.21008 | 32999 ft | 465 kts | 223° |
| 2026-04-24 16:58 | 25.18865 | 48.18630 | 32398 ft | 463 kts | 231° |
| 2026-04-24 16:58 | 25.16950 | 48.15796 | 31885 ft | 459 kts | 242° |
| 2026-04-24 16:58 | 25.15560 | 48.12636 | 31224 ft | 458 kts | 251° |
| 2026-04-24 16:59 | 25.14741 | 48.09236 | 30562 ft | 460 kts | 262° |
| 2026-04-24 16:59 | 25.14399 | 48.05734 | 30126 ft | 458 kts | 265° |
| 2026-04-24 16:59 | 25.13732 | 47.98806 | 29491 ft | 454 kts | 264° |
| 2026-04-24 17:00 | 25.13384 | 47.95352 | 29213 ft | 451 kts | 264° |
| 2026-04-24 17:00 | 25.12696 | 47.88452 | 28901 ft | 455 kts | 265° |
| 2026-04-24 17:00 | 25.12751 | 47.84959 | 28861 ft | 457 kts | 276° |
| 2026-04-24 17:01 | 25.14676 | 47.78236 | 28666 ft | 465 kts | 296° |
| 2026-04-24 17:01 | 25.16343 | 47.75191 | 28318 ft | 462 kts | 298° |
| 2026-04-24 17:02 | 25.19133 | 47.70148 | 27590 ft | 462 kts | 298° |
| 2026-04-24 17:02 | 25.21351 | 47.66095 | 27200 ft | 460 kts | 298° |
| 2026-04-24 17:02 | 25.22979 | 47.63113 | 26973 ft | 459 kts | 298° |
| 2026-04-24 17:02 | 25.24623 | 47.60100 | 26766 ft | 457 kts | 298° |
| 2026-04-24 17:03 | 25.27881 | 47.54128 | 26560 ft | 446 kts | 298° |
| 2026-04-24 17:03 | 25.29469 | 47.51215 | 26312 ft | 439 kts | 298° |
| 2026-04-24 17:03 | 25.31040 | 47.48327 | 25711 ft | 435 kts | 298° |
| 2026-04-24 17:04 | 25.32583 | 47.45476 | 25000 ft | 431 kts | 297° |
| 2026-04-24 17:04 | 25.34289 | 47.39431 | 24267 ft | 397 kts | 274° |
| 2026-04-24 17:04 | 25.34214 | 47.36427 | 24008 ft | 389 kts | 261° |
| 2026-04-24 17:05 | 25.33587 | 47.33461 | 23797 ft | 404 kts | 250° |
| 2026-04-24 17:05 | 25.32383 | 47.30657 | 23573 ft | 402 kts | 238° |
| 2026-04-24 17:05 | 25.29250 | 47.25627 | 23248 ft | 388 kts | 238° |
| 2026-04-24 17:06 | 25.27766 | 47.23213 | 23042 ft | 373 kts | 239° |
| 2026-04-24 17:06 | 25.24948 | 47.18590 | 21926 ft | 360 kts | 239° |
| 2026-04-24 17:06 | 25.23558 | 47.16310 | 21304 ft | 355 kts | 238° |
| 2026-04-24 17:07 | 25.22629 | 47.14789 | 20890 ft | 352 kts | 238° |
| 2026-04-24 17:07 | 25.20826 | 47.11845 | 20098 ft | 347 kts | 238° |
| 2026-04-24 17:07 | 25.18147 | 47.07477 | 18948 ft | 339 kts | 238° |
| 2026-04-24 17:08 | 25.15526 | 47.03205 | 17742 ft | 335 kts | 237° |
| 2026-04-24 17:08 | 25.14205 | 47.01051 | 17105 ft | 341 kts | 237° |
| 2026-04-24 17:08 | 25.12882 | 46.98893 | 16490 ft | 336 kts | 237° |
| 2026-04-24 17:09 | 25.10449 | 46.94582 | 15222 ft | 328 kts | 248° |
| 2026-04-24 17:09 | 25.10546 | 46.89665 | 14074 ft | 334 kts | 289° |
| 2026-04-24 17:10 | 25.11753 | 46.87474 | 13493 ft | 335 kts | 301° |
| 2026-04-24 17:10 | 25.15655 | 46.81507 | 11815 ft | 299 kts | 301° |
| 2026-04-24 17:11 | 25.18957 | 46.76166 | 10233 ft | 267 kts | 299° |
| 2026-04-24 17:12 | 25.24451 | 46.68036 | 7222 ft | 270 kts | 323° |